Time;durP1;ratioP1;P1;durP2;ratioP2;P2;SDS_P1;SDS_P2;PMS_P1;PMS_P2;Temp;Humidity;BMP_temperature;BMP_pressure;BME280_temperature;BME280_humidity;BME280_pressure;Samples;Min_cycle;Max_cycle;Signal;HPM_P1;HPM_P2
2021/09/09 00:01:43;;;;;;;;;25.67;24.33;;;;;24.13;84.04;100691.09;5055824;28;59113;-80
2021/09/09 00:04:09;;;;;;;;;28.00;23.33;;;;;24.12;84.44;100692.06;5055471;28;45503;-78
2021/09/09 00:06:34;;;;;;;;;30.33;24.67;;;;;24.11;84.14;100701.09;5054981;28;49897;-78
2021/09/09 00:09:00;;;;;;;;;26.33;23.33;;;;;24.09;84.45;100693.09;5055625;28;47223;-78
2021/09/09 00:11:25;;;;;;;;;26.67;26.00;;;;;24.09;84.39;100703.88;5056477;28;45440;-79
2021/09/09 00:13:51;;;;;;;;;28.33;26.00;;;;;24.09;84.16;100709.28;5057059;28;45322;-78
2021/09/09 00:16:16;;;;;;;;;27.33;23.33;;;;;24.10;84.30;100715.53;5056154;28;45406;-79
2021/09/09 00:18:42;;;;;;;;;26.67;24.67;;;;;24.11;84.23;100718.16;5054658;28;47157;-77
2021/09/09 00:21:07;;;;;;;;;27.33;23.33;;;;;24.12;84.17;100717.22;5057101;28;55050;-79
2021/09/09 00:23:32;;;;;;;;;25.00;23.67;;;;;24.12;84.28;100705.53;5050264;28;45557;-78
2021/09/09 00:25:58;;;;;;;;;24.33;22.67;;;;;24.13;84.01;100704.59;5058317;28;45280;-79
2021/09/09 00:28:23;;;;;;;;;24.33;22.00;;;;;24.18;84.57;100713.34;5058998;28;58611;-79
2021/09/09 00:30:51;;;;;;;;;20.33;20.00;;;;;24.19;84.36;100704.31;5058849;28;51836;-80
2021/09/09 00:33:18;;;;;;;;;26.67;25.33;;;;;24.19;83.77;100704.31;5059828;28;45357;-78
2021/09/09 00:35:43;;;;;;;;;22.33;22.33;;;;;24.19;83.80;100698.94;5059518;28;45390;-78
2021/09/09 00:38:09;;;;;;;;;24.67;20.67;;;;;24.18;83.87;100695.38;5059104;28;45425;-78
2021/09/09 00:40:34;;;;;;;;;24.33;23.00;;;;;24.17;83.85;100687.31;5057438;28;55460;-78
2021/09/09 00:43:00;;;;;;;;;24.33;23.00;;;;;24.14;83.45;100690.19;5058051;28;45338;-78
2021/09/09 00:45:25;;;;;;;;;28.33;24.67;;;;;24.06;83.56;100668.94;5051671;28;44910;-79
2021/09/09 00:47:51;;;;;;;;;22.33;21.67;;;;;24.09;82.04;100676.03;5054452;28;54825;-79
2021/09/09 00:50:16;;;;;;;;;29.67;24.33;;;;;24.05;83.26;100678.88;5058701;28;45326;-79
2021/09/09 00:52:45;;;;;;;;;22.00;19.67;;;;;23.97;83.18;100681.06;5059786;28;52377;-78
2021/09/09 00:55:10;;;;;;;;;25.00;22.33;;;;;23.99;83.56;100686.38;5059429;28;45550;-78
2021/09/09 00:57:36;;;;;;;;;23.67;23.67;;;;;23.94;83.37;100681.19;5058904;28;58068;-78
2021/09/09 01:00:01;;;;;;;;;23.00;23.00;;;;;23.95;83.01;100684.75;5058703;28;45283;-78
2021/09/09 01:02:27;;;;;;;;;26.67;24.00;;;;;23.92;83.36;100682.22;5059372;28;45513;-79
2021/09/09 01:04:53;;;;;;;;;23.67;21.67;;;;;23.91;83.61;100692.09;5055445;28;46907;-78
2021/09/09 01:07:18;;;;;;;;;24.33;23.33;;;;;23.88;82.97;100686.00;5058693;28;45969;-79
2021/09/09 01:09:44;;;;;;;;;23.00;22.33;;;;;23.88;82.82;100688.69;5057923;28;58694;-78
2021/09/09 01:12:09;;;;;;;;;21.33;20.67;;;;;23.88;81.94;100697.66;5058681;28;56630;-78
2021/09/09 01:14:34;;;;;;;;;26.00;23.33;;;;;23.87;80.41;100703.13;5058623;28;45440;-81
2021/09/09 01:17:00;;;;;;;;;25.00;23.00;;;;;23.85;77.94;100702.31;5056652;28;59582;-78
2021/09/09 01:19:25;;;;;;;;;30.67;23.33;;;;;23.86;76.96;100701.38;5059038;28;45472;-78
2021/09/09 01:21:51;;;;;;;;;24.00;22.67;;;;;23.87;76.65;100708.53;5058626;28;45303;-77
2021/09/09 01:24:17;;;;;;;;;25.00;22.67;;;;;23.86;76.36;100717.53;5058272;28;45464;-78
2021/09/09 01:26:53;;;;;;;;;24.67;23.00;;;;;23.87;75.85;100713.94;5058476;28;47194;-77
2021/09/09 01:29:28;;;;;;;;;26.00;22.00;;;;;23.89;75.66;100720.97;5059011;28;45361;-77
2021/09/09 01:31:55;;;;;;;;;31.00;23.67;;;;;23.93;75.50;100714.50;5051368;28;45493;-77
2021/09/09 01:34:21;;;;;;;;;22.33;20.00;;;;;23.94;75.64;100712.69;5058251;28;45511;-78
2021/09/09 01:36:47;;;;;;;;;28.00;23.00;;;;;23.88;75.34;100702.19;5057429;28;45614;-77
2021/09/09 01:39:12;;;;;;;;;25.33;23.33;;;;;23.94;75.15;100713.56;5057022;28;45292;-77
2021/09/09 01:41:37;;;;;;;;;24.33;21.67;;;;;23.92;75.32;100699.28;5058539;28;56188;-77
2021/09/09 01:44:03;;;;;;;;;26.33;24.00;;;;;23.94;75.04;100707.28;5058417;28;45518;-77
2021/09/09 01:46:29;;;;;;;;;23.67;20.67;;;;;23.94;75.12;100718.94;5058066;28;46865;-76
2021/09/09 01:48:55;;;;;;;;;24.00;22.00;;;;;23.94;75.09;100713.56;5055833;28;45472;-77
2021/09/09 01:51:24;;;;;;;;;20.00;20.00;;;;;23.94;74.88;100718.94;5057920;28;45421;-77
2021/09/09 01:53:50;;;;;;;;;26.67;25.00;;;;;23.96;74.86;100727.84;5054130;28;45553;-77
2021/09/09 01:56:15;;;;;;;;;27.33;24.00;;;;;23.97;74.47;100724.22;5054792;28;45433;-77
2021/09/09 01:58:41;;;;;;;;;24.67;24.67;;;;;23.99;74.71;100724.13;5055723;28;45497;-77
2021/09/09 02:01:07;;;;;;;;;25.67;24.00;;;;;23.99;74.57;100732.22;5058400;28;45413;-79
2021/09/09 02:03:33;;;;;;;;;26.33;23.33;;;;;23.99;74.55;100738.50;5058928;28;45369;-77
2021/09/09 02:05:58;;;;;;;;;31.33;22.33;;;;;23.98;74.47;100733.19;5056779;28;60935;-77
2021/09/09 02:08:24;;;;;;;;;25.00;23.00;;;;;23.94;74.50;100724.34;5057130;28;60755;-77
2021/09/09 02:10:49;;;;;;;;;24.00;22.67;;;;;23.93;74.63;100729.81;5059154;28;45325;-77
2021/09/09 02:13:15;;;;;;;;;24.67;23.00;;;;;23.92;74.56;100726.25;5057100;28;55433;-77
2021/09/09 02:15:41;;;;;;;;;28.00;24.67;;;;;23.90;74.59;100711.06;5058527;28;47414;-79
2021/09/09 02:18:07;;;;;;;;;23.33;22.33;;;;;23.91;74.51;100713.69;5057907;28;45353;-78
2021/09/09 02:20:32;;;;;;;;;22.67;22.67;;;;;23.92;74.66;100723.56;5059440;28;46666;-78
2021/09/09 02:22:58;;;;;;;;;25.67;22.67;;;;;23.90;74.31;100724.56;5057499;28;54645;-79
2021/09/09 02:25:23;;;;;;;;;32.33;26.33;;;;;23.87;74.31;100720.19;5049610;28;62209;-77
2021/09/09 02:27:48;;;;;;;;;26.33;23.00;;;;;23.85;74.42;100726.59;5057327;28;45497;-77
2021/09/09 02:30:14;;;;;;;;;27.67;24.00;;;;;23.81;74.27;100723.19;5057012;28;46021;-79
2021/09/09 02:32:39;;;;;;;;;28.33;24.33;;;;;23.78;74.56;100723.31;5055232;28;48710;-77
2021/09/09 02:35:05;;;;;;;;;34.33;27.33;;;;;23.74;74.85;100717.16;5057102;28;47072;-77
2021/09/09 02:37:30;;;;;;;;;29.67;28.33;;;;;23.70;74.84;100709.28;5056923;28;45357;-78
2021/09/09 02:39:56;;;;;;;;;30.00;27.33;;;;;23.69;74.73;100719.19;5052041;28;55541;-78
2021/09/09 02:42:21;;;;;;;;;27.33;26.00;;;;;23.64;74.77;100717.66;5057169;28;45446;-78
2021/09/09 02:44:46;;;;;;;;;29.33;29.00;;;;;23.59;74.65;100720.50;5055212;28;58647;-78
2021/09/09 02:47:12;;;;;;;;;28.33;26.00;;;;;23.61;74.86;100728.56;5056478;28;45217;-79
2021/09/09 02:49:37;;;;;;;;;27.33;23.67;;;;;23.60;74.52;100724.13;5055297;28;53330;-77
2021/09/09 02:52:03;;;;;;;;;29.33;27.67;;;;;23.57;74.96;100719.72;5057696;28;45879;-79
2021/09/09 02:54:28;;;;;;;;;27.00;22.00;;;;;23.56;74.86;100733.28;5057533;28;46665;-78
2021/09/09 02:56:54;;;;;;;;;30.00;27.67;;;;;23.54;75.10;100736.00;5051331;28;45475;-78
2021/09/09 02:59:19;;;;;;;;;30.33;26.67;;;;;23.51;74.90;100731.66;5051081;28;56314;-78
2021/09/09 03:01:48;;;;;;;;;29.33;26.67;;;;;23.51;75.02;100720.00;5054052;28;50144;-79
2021/09/09 03:04:13;;;;;;;;;34.33;29.33;;;;;23.49;74.72;100716.50;5058018;28;45554;-78
2021/09/09 03:06:38;;;;;;;;;31.67;27.33;;;;;23.44;75.13;100723.91;5054827;28;57567;-78
2021/09/09 03:09:04;;;;;;;;;29.67;27.00;;;;;23.42;74.87;100715.88;5167413;22;54352;-78
2021/09/09 03:11:29;;;;;;;;;31.33;27.33;;;;;23.44;75.06;100710.44;5056386;28;46919;-78
2021/09/09 03:13:54;;;;;;;;;29.00;24.00;;;;;23.42;74.87;100709.59;5056680;28;58200;-78
2021/09/09 03:16:20;;;;;;;;;30.00;24.33;;;;;23.40;74.74;100715.06;5056283;28;46116;-81
2021/09/09 03:18:45;;;;;;;;;30.67;28.33;;;;;23.40;74.75;100719.59;5056777;28;54475;-78
2021/09/09 03:21:14;;;;;;;;;31.00;26.00;;;;;23.35;74.84;100706.31;5057726;28;46195;-78
2021/09/09 03:23:39;;;;;;;;;33.67;29.67;;;;;23.39;75.00;100717.84;5052104;28;45455;-78
2021/09/09 03:26:05;;;;;;;;;30.00;27.00;;;;;23.36;74.89;100718.84;5050137;28;45480;-78
2021/09/09 03:28:30;;;;;;;;;26.67;23.00;;;;;23.39;75.04;100716.03;5057408;28;49975;-78
2021/09/09 03:30:55;;;;;;;;;31.00;24.67;;;;;23.40;75.00;100722.28;5053420;28;45468;-78
2021/09/09 03:33:21;;;;;;;;;29.00;26.00;;;;;23.38;74.60;100718.75;5055442;28;62279;-78
2021/09/09 03:35:49;;;;;;;;;28.67;26.00;;;;;23.37;75.06;100712.50;5055010;28;50479;-78
2021/09/09 03:38:14;;;;;;;;;31.00;27.33;;;;;23.37;74.82;100715.19;5054924;28;45351;-78
2021/09/09 03:40:40;;;;;;;;;34.67;28.33;;;;;23.37;74.87;100712.50;5054022;28;45609;-81
2021/09/09 03:43:05;;;;;;;;;28.33;24.67;;;;;23.37;75.25;100699.03;5055673;28;46354;-78
2021/09/09 03:45:30;;;;;;;;;27.00;23.67;;;;;23.38;74.76;100699.91;5053335;28;51422;-78
2021/09/09 03:47:56;;;;;;;;;25.33;23.67;;;;;23.37;75.05;100690.94;5049836;28;51662;-80
2021/09/09 03:50:21;;;;;;;;;31.00;28.00;;;;;23.35;74.94;100686.59;5055611;28;45412;-79
2021/09/09 03:52:46;;;;;;;;;33.33;28.00;;;;;23.32;74.67;100690.28;5055772;28;47259;-78
2021/09/09 03:55:12;;;;;;;;;31.67;26.67;;;;;23.29;74.87;100700.34;5055797;28;53854;-78
2021/09/09 03:57:38;;;;;;;;;31.00;28.33;;;;;23.22;74.60;100692.53;5055392;28;46627;-77
2021/09/09 04:00:04;;;;;;;;;29.67;25.67;;;;;23.21;74.92;100696.13;5054743;28;45511;-78
2021/09/09 04:02:29;;;;;;;;;31.00;27.00;;;;;23.18;74.84;100700.78;5054918;28;46945;-77
2021/09/09 04:04:55;;;;;;;;;27.67;25.67;;;;;23.15;74.90;100712.56;5055376;28;56248;-78
2021/09/09 04:07:20;;;;;;;;;31.33;29.33;;;;;23.11;74.76;100707.38;5055026;28;48315;-78
2021/09/09 04:09:46;;;;;;;;;29.33;28.00;;;;;23.08;74.89;100704.81;5055458;28;50128;-78
2021/09/09 04:12:11;;;;;;;;;31.00;26.33;;;;;23.05;74.81;100703.13;5055051;28;64067;-78
2021/09/09 04:14:36;;;;;;;;;31.00;26.67;;;;;22.98;75.03;100693.56;5051319;28;45285;-78
2021/09/09 04:17:02;;;;;;;;;26.00;25.67;;;;;22.99;75.35;100703.38;5054426;28;45278;-78
2021/09/09 04:19:27;;;;;;;;;25.33;23.67;;;;;22.98;74.99;100694.44;5055802;28;45484;-78
2021/09/09 04:21:53;;;;;;;;;30.67;28.00;;;;;22.93;74.66;100691.06;5055382;28;47117;-78
2021/09/09 04:24:20;;;;;;;;;30.67;29.33;;;;;22.90;75.40;100685.78;5055153;28;60126;-78
2021/09/09 04:26:46;;;;;;;;;29.00;29.00;;;;;22.90;75.01;100688.47;5051572;28;45322;-78
2021/09/09 04:29:11;;;;;;;;;29.33;27.67;;;;;22.88;75.29;100687.69;5057434;28;46734;-78
2021/09/09 04:31:37;;;;;;;;;30.67;26.00;;;;;22.85;74.70;100685.09;5055699;28;46543;-77
2021/09/09 04:34:02;;;;;;;;;28.67;26.67;;;;;22.84;74.68;100683.31;5049890;28;46663;-76
2021/09/09 04:36:28;;;;;;;;;30.00;25.33;;;;;22.81;75.07;100688.88;5055131;28;51041;-76
2021/09/09 04:38:53;;;;;;;;;24.67;23.67;;;;;22.80;74.93;100684.44;5055973;28;45313;-76
2021/09/09 04:41:18;;;;;;;;;28.67;27.33;;;;;22.79;74.86;100684.47;5055187;28;60331;-76
2021/09/09 04:43:44;;;;;;;;;28.67;27.33;;;;;22.72;75.22;100675.78;5053486;28;45338;-76
2021/09/09 04:46:10;;;;;;;;;27.33;25.00;;;;;22.72;75.28;100681.16;5051498;28;45533;-77
2021/09/09 04:48:35;;;;;;;;;30.00;26.67;;;;;22.70;75.30;100678.53;5053445;28;45449;-77
2021/09/09 04:51:01;;;;;;;;;29.67;25.67;;;;;22.70;75.07;100672.28;5053947;28;59538;-77
2021/09/09 04:53:26;;;;;;;;;29.33;28.00;;;;;22.67;75.00;100669.72;5048735;28;51727;-77
2021/09/09 04:55:52;;;;;;;;;33.33;29.00;;;;;;;;5049845;28;45460;-77
2021/09/09 04:58:17;;;;;;;;;29.33;27.33;;;;;22.66;75.49;100670.66;5053547;28;45527;-78
2021/09/09 05:00:42;;;;;;;;;30.00;27.33;;;;;22.64;75.66;100672.56;5045501;28;57015;-79
2021/09/09 05:03:08;;;;;;;;;32.00;29.33;;;;;22.63;75.71;100677.03;5053563;28;45259;-79
2021/09/09 05:05:33;;;;;;;;;31.67;29.00;;;;;22.62;75.39;100675.28;5051127;28;45311;-77
2021/09/09 05:07:59;;;;;;;;;31.33;28.67;;;;;22.62;75.49;100671.72;5051659;28;45484;-78
2021/09/09 05:10:24;;;;;;;;;30.67;29.00;;;;;22.61;75.35;100667.28;5048651;28;51897;-76
2021/09/09 05:12:49;;;;;;;;;31.00;30.00;;;;;22.60;75.35;100666.41;5053041;28;45377;-78
2021/09/09 05:15:15;;;;;;;;;31.00;29.67;;;;;22.62;75.05;100669.03;5052112;28;45695;-76
2021/09/09 05:17:41;;;;;;;;;29.67;28.67;;;;;22.60;75.22;100661.03;5057396;28;46973;-78
2021/09/09 05:20:07;;;;;;;;;27.33;27.33;;;;;22.59;75.36;100670.03;5046934;28;45425;-79
2021/09/09 05:22:33;;;;;;;;;31.33;30.33;;;;;22.57;75.35;100669.22;5050088;28;45432;-78
2021/09/09 05:25:00;;;;;;;;;32.00;29.33;;;;;22.55;75.28;100663.03;5053194;28;45457;-79
2021/09/09 05:27:25;;;;;;;;;30.33;27.00;;;;;22.57;75.75;100665.66;5050937;28;45528;-80
2021/09/09 05:29:50;;;;;;;;;33.33;27.33;;;;;22.55;75.27;100673.78;5054657;28;57939;-80
2021/09/09 05:32:16;;;;;;;;;33.67;29.67;;;;;22.54;75.38;100672.03;5057560;28;45338;-78
2021/09/09 05:34:41;;;;;;;;;31.00;29.33;;;;;22.52;75.66;100675.72;5048506;28;50788;-79
2021/09/09 05:37:07;;;;;;;;;31.33;29.00;;;;;22.54;75.43;100679.25;5050049;28;50912;-81
2021/09/09 05:39:32;;;;;;;;;31.33;29.00;;;;;22.52;75.19;100687.34;5053166;28;46200;-76
2021/09/09 05:41:57;;;;;;;;;28.33;28.00;;;;;22.53;75.48;100690.91;5052211;28;57772;-76
2021/09/09 05:44:23;;;;;;;;;33.33;27.33;;;;;22.53;75.44;100707.97;5047718;28;48727;-76
2021/09/09 05:46:48;;;;;;;;;34.33;30.33;;;;;22.54;75.57;100715.09;5049396;28;49156;-78
2021/09/09 05:49:14;;;;;;;;;31.00;28.33;;;;;22.56;75.68;100718.59;5047910;28;53027;-76
2021/09/09 05:51:39;;;;;;;;;34.00;32.33;;;;;22.61;75.98;100723.78;5054689;28;45457;-79
2021/09/09 05:54:04;;;;;;;;;31.00;29.67;;;;;22.65;76.00;100725.44;5051246;28;56225;-81
2021/09/09 05:56:30;;;;;;;;;35.33;32.00;;;;;22.71;76.26;100736.81;5053844;28;45303;-80
2021/09/09 05:58:55;;;;;;;;;33.67;31.00;;;;;22.76;76.04;100731.25;5046983;28;46676;-81
2021/09/09 06:01:21;;;;;;;;;36.00;29.67;;;;;22.82;75.87;100738.19;5052319;28;45467;-82
2021/09/09 06:03:47;;;;;;;;;35.00;31.33;;;;;22.89;75.64;100737.03;5052504;28;46794;-80
2021/09/09 06:06:15;;;;;;;;;37.67;32.33;;;;;22.94;75.18;100729.63;5055080;28;45462;-81
2021/09/09 06:08:40;;;;;;;;;38.33;32.33;;;;;23.02;75.40;100735.59;5056777;28;47401;-80
2021/09/09 06:11:06;;;;;;;;;40.00;33.67;;;;;23.10;75.19;100735.25;5044980;28;59167;-82
2021/09/09 06:13:32;;;;;;;;;39.00;32.00;;;;;23.13;75.02;100727.94;5048204;28;50469;-79
2021/09/09 06:15:57;;;;;;;;;36.00;34.00;;;;;23.19;74.78;100733.06;5044013;28;45441;-81
2021/09/09 06:18:23;;;;;;;;;37.33;32.00;;;;;23.24;74.88;100736.41;5046534;28;58349;-81
2021/09/09 06:20:48;;;;;;;;;35.33;31.67;;;;;23.30;74.49;100737.09;5050334;28;58258;-81
2021/09/09 06:23:52;;;;;;;;;37.00;33.67;;;;;23.37;73.97;100739.44;5050678;28;45779;-80
2021/09/09 06:26:34;;;;;;;;;34.00;32.67;;;;;23.43;74.47;100741.88;5047984;28;46556;-80
2021/09/09 06:28:59;;;;;;;;;36.67;32.00;;;;;23.45;74.11;100739.13;5045717;28;47548;-79
2021/09/09 06:31:24;;;;;;;;;39.33;33.00;;;;;23.45;73.46;100739.13;5052263;28;45494;-83
2021/09/09 06:33:50;;;;;;;;;34.00;33.00;;;;;23.47;73.66;100753.41;5052661;28;47188;-81
2021/09/09 06:36:16;;;;;;;;;38.00;34.00;;;;;23.45;73.52;100745.41;5048463;28;45581;-81
2021/09/09 06:38:41;;;;;;;;;39.33;34.33;;;;;23.48;73.34;100747.06;5048328;28;47614;-74
2021/09/09 06:41:07;;;;;;;;;37.33;33.33;;;;;23.49;73.25;100748.84;5054090;28;56501;-75
2021/09/09 06:43:32;;;;;;;;;30.67;24.67;;;;;23.50;73.12;100758.69;5044621;28;45433;-75
2021/09/09 06:45:57;;;;;;;;;30.67;30.67;;;;;23.48;72.85;100765.94;5049762;28;45266;-75
2021/09/09 06:48:23;;;;;;;;;38.00;31.33;;;;;23.49;72.86;100765.88;5047381;28;46418;-74
2021/09/09 06:50:48;;;;;;;;;34.67;33.33;;;;;23.49;73.09;100770.41;5042744;28;45390;-75
2021/09/09 06:53:14;;;;;;;;;39.33;32.00;;;;;23.49;72.87;100770.41;5051296;28;52770;-75
2021/09/09 06:55:39;;;;;;;;;32.00;31.33;;;;;23.49;72.94;100776.66;5047533;28;45760;-74
2021/09/09 06:58:04;;;;;;;;;33.33;31.67;;;;;23.46;72.78;100776.78;5048119;28;46570;-75
2021/09/09 07:00:30;;;;;;;;;34.33;32.33;;;;;23.41;73.08;100762.63;5050017;28;45706;-76
2021/09/09 07:02:55;;;;;;;;;37.33;32.33;;;;;23.38;72.95;100769.97;5051299;28;45354;-75
2021/09/09 07:05:21;;;;;;;;;37.67;31.33;;;;;23.30;73.11;100766.75;5048493;28;45303;-75
2021/09/09 07:07:46;;;;;;;;;37.33;33.00;;;;;23.34;73.24;100771.94;5053853;28;56284;-75
2021/09/09 07:10:11;;;;;;;;;34.67;32.00;;;;;23.34;72.99;100777.31;5048395;28;45426;-76
2021/09/09 07:12:37;;;;;;;;;39.33;34.33;;;;;23.33;73.23;100771.97;5055609;28;45927;-75
2021/09/09 07:15:04;;;;;;;;;38.33;33.00;;;;;23.35;73.29;100768.28;5045449;28;45433;-78
2021/09/09 07:17:29;;;;;;;;;43.33;33.33;;;;;23.36;73.29;100780.81;5049636;28;46626;-74
2021/09/09 07:19:54;;;;;;;;;36.00;32.00;;;;;23.38;72.92;100767.28;5046512;28;59583;-74
2021/09/09 07:22:20;;;;;;;;;38.67;31.33;;;;;23.38;72.98;100778.91;5052340;28;52846;-75
2021/09/09 07:24:45;;;;;;;;;37.00;32.33;;;;;23.39;72.97;100769.91;5051434;28;45488;-75
2021/09/09 07:27:10;;;;;;;;;33.67;32.67;;;;;23.42;73.46;100771.59;5053784;28;47817;-75
2021/09/09 07:29:36;;;;;;;;;32.33;30.33;;;;;23.40;72.96;100774.38;5047750;28;58914;-74
2021/09/09 07:32:01;;;;;;;;;31.00;31.00;;;;;23.41;73.04;100773.41;5043796;28;49130;-75
2021/09/09 07:34:27;;;;;;;;;33.00;31.33;;;;;23.43;73.02;100771.50;5054239;28;47212;-74
2021/09/09 07:36:55;;;;;;;;;36.67;30.67;;;;;23.47;72.88;100772.28;5049189;28;46389;-75
2021/09/09 07:39:21;;;;;;;;;41.33;33.00;;;;;23.49;72.78;100779.38;5150839;22;45525;-75
2021/09/09 07:41:46;;;;;;;;;34.33;29.33;;;;;23.51;72.43;100776.59;5030562;28;45395;-74
2021/09/09 07:44:12;;;;;;;;;32.33;27.67;;;;;23.50;72.38;100767.63;5032592;28;45414;-74
2021/09/09 07:46:37;;;;;;;;;38.00;32.33;;;;;23.54;72.47;100771.03;5028045;28;60816;-76
2021/09/09 07:49:03;;;;;;;;;31.00;28.67;;;;;23.56;72.21;100773.69;5033532;28;45409;-75
2021/09/09 07:51:28;;;;;;;;;31.00;30.00;;;;;23.54;71.83;100779.13;5028618;28;45501;-75
2021/09/09 07:53:55;;;;;;;;;32.67;31.00;;;;;23.52;72.13;100781.91;5029104;28;45529;-73
2021/09/09 07:56:20;;;;;;;;;28.00;26.67;;;;;23.52;72.45;100789.13;5031428;28;47215;-73
2021/09/09 07:58:49;;;;;;;;;30.33;27.00;;;;;23.49;71.64;100776.66;5029258;28;45549;-72
2021/09/09 08:01:16;;;;;;;;;29.67;25.00;;;;;23.49;71.22;100771.28;5032498;28;45593;-73
2021/09/09 08:03:41;;;;;;;;;26.33;22.00;;;;;23.49;71.88;100773.09;5034089;28;45462;-75
2021/09/09 08:06:07;;;;;;;;;24.33;24.00;;;;;23.51;71.62;100776.59;5027652;28;49420;-73
2021/09/09 08:08:32;;;;;;;;;34.33;30.67;;;;;23.51;71.13;100781.97;5028110;28;45579;-74
2021/09/09 08:10:58;;;;;;;;;23.67;20.33;;;;;23.51;71.61;100785.56;5026399;28;45335;-73
2021/09/09 08:13:23;;;;;;;;;32.67;26.00;;;;;23.52;71.42;100781.91;5023288;28;45589;-74
2021/09/09 08:15:48;;;;;;;;;34.33;27.00;;;;;23.55;71.75;100789.00;5031779;28;52935;-74
2021/09/09 08:18:14;;;;;;;;;27.33;26.00;;;;;23.56;71.36;100782.66;5027840;28;45299;-73
2021/09/09 08:20:39;;;;;;;;;30.33;27.00;;;;;23.59;71.36;100776.25;5028477;28;45516;-74
2021/09/09 08:23:05;;;;;;;;;23.33;20.67;;;;;23.64;70.85;100788.59;5028454;28;48383;-74
2021/09/09 08:25:30;;;;;;;;;28.33;22.67;;;;;23.66;70.99;100794.81;5033823;28;59129;-74
2021/09/09 08:27:55;;;;;;;;;24.00;24.00;;;;;23.68;71.53;100792.06;5032850;28;45936;-75
2021/09/09 08:30:21;;;;;;;;;33.00;28.67;;;;;23.67;71.82;100790.31;5033871;28;51645;-77
2021/09/09 08:32:46;;;;;;;;;29.67;27.67;;;;;23.62;72.02;100792.28;5028706;28;47626;-73
2021/09/09 08:35:11;;;;;;;;;33.33;28.00;;;;;23.58;72.66;100791.53;5029921;28;59403;-73
2021/09/09 08:37:37;;;;;;;;;31.67;29.00;;;;;23.58;72.83;100796.06;5031404;28;45736;-74
2021/09/09 08:40:05;;;;;;;;;30.67;29.33;;;;;23.51;72.73;100785.56;5029435;28;46015;-74
2021/09/09 08:42:31;;;;;;;;;34.00;31.33;;;;;23.51;73.57;100785.56;5030413;28;45573;-75
2021/09/09 08:44:56;;;;;;;;;29.00;28.67;;;;;23.51;73.13;100793.63;5026813;28;46274;-76
2021/09/09 08:47:23;;;;;;;;;33.00;30.00;;;;;23.56;72.73;100798.84;5027936;28;46875;-74
2021/09/09 08:49:48;;;;;;;;;37.00;31.00;;;;;23.63;73.32;100802.16;5033891;28;45660;-74
2021/09/09 08:52:13;;;;;;;;;38.33;33.33;;;;;23.70;73.47;100803.63;5031746;28;52422;-76
2021/09/09 08:54:39;;;;;;;;;30.00;26.33;;;;;23.76;72.96;100798.00;5028787;28;45498;-76
2021/09/09 08:57:04;;;;;;;;;29.00;27.00;;;;;23.82;73.00;100803.13;5033650;28;45466;-74
2021/09/09 08:59:30;;;;;;;;;35.00;26.00;;;;;23.89;72.86;100795.63;5037862;28;45467;-75
2021/09/09 09:01:58;;;;;;;;;33.00;29.33;;;;;23.96;72.75;100797.97;5036741;28;45413;-74
2021/09/09 09:06:50;;;;;;;;;35.00;30.67;;;;;24.00;72.83;100796.00;5063302;22;71579;-74
2021/09/09 09:09:19;;;;;;;;;39.00;28.33;;;;;23.97;72.03;100798.84;5051115;28;45444;-75
2021/09/09 09:11:45;;;;;;;;;42.67;33.67;;;;;23.97;72.49;100805.13;5054277;28;45615;-75
2021/09/09 09:14:12;;;;;;;;;31.00;27.67;;;;;23.91;71.24;100800.00;5047434;28;47323;-74
2021/09/09 09:16:48;;;;;;;;;29.33;26.33;;;;;23.89;72.26;100804.59;5046075;28;46579;-75
2021/09/09 09:19:15;;;;;;;;;33.33;29.00;;;;;23.87;72.36;100813.72;5055281;28;45491;-76
2021/09/09 09:21:43;;;;;;;;;35.00;28.00;;;;;23.86;72.32;100814.63;5052804;28;45560;-74
2021/09/09 09:24:09;;;;;;;;;36.33;31.00;;;;;23.85;72.47;100802.09;5054394;28;47409;-76
2021/09/09 09:26:34;;;;;;;;;32.67;29.00;;;;;23.95;72.56;100807.00;5039457;28;45577;-74
2021/09/09 09:29:00;;;;;;;;;37.33;32.00;;;;;24.04;72.41;100803.91;5056272;28;55409;-75
2021/09/09 09:31:33;;;;;;;;;33.67;28.00;;;;;24.17;72.24;100806.03;5045218;28;45617;-74
2021/09/09 09:34:01;;;;;;;;;37.67;31.33;;;;;24.25;72.34;100803.88;5053920;28;46510;-77
2021/09/09 09:36:30;;;;;;;;;34.00;29.00;;;;;24.31;71.66;100808.97;5050709;28;45485;-74
2021/09/09 09:39:15;;;;;;;;;30.33;25.00;;;;;24.29;71.58;100795.56;5050820;28;45996;-75
2021/09/09 09:41:52;;;;;;;;;29.67;28.00;;;;;24.27;71.26;100808.22;5050210;28;45565;-74
2021/09/09 09:44:18;;;;;;;;;26.33;26.33;;;;;24.26;71.43;100808.31;5048156;28;46849;-74
2021/09/09 09:46:44;;;;;;;;;32.00;29.00;;;;;24.28;70.91;100801.88;5030712;28;45513;-74
2021/09/09 09:49:15;;;;;;;;;29.67;29.00;;;;;24.33;71.51;100804.38;5050585;28;54417;-74
2021/09/09 09:51:42;;;;;;;;;28.00;26.33;;;;;24.37;71.60;100794.34;5054953;28;45501;-75
2021/09/09 09:54:11;;;;;;;;;31.00;23.00;;;;;24.46;71.80;100799.34;5050593;28;47588;-74
2021/09/09 09:56:37;;;;;;;;;32.00;27.00;;;;;24.59;71.16;100797.78;5052839;28;45504;-75
2021/09/09 09:59:03;;;;;;;;;31.00;24.33;;;;;24.76;69.88;100808.66;5049471;28;45447;-74
2021/09/09 10:01:29;;;;;;;;;28.00;23.33;;;;;24.78;70.17;100804.06;5044315;28;45334;-75
2021/09/09 10:03:55;;;;;;;;;26.67;23.67;;;;;24.93;70.12;100807.84;5036287;28;46229;-74
2021/09/09 10:06:20;;;;;;;;;25.33;22.00;;;;;25.01;69.96;100794.81;5034605;28;45303;-75
2021/09/09 10:08:46;;;;;;;;;19.67;19.67;;;;;25.19;69.32;100803.88;5055250;28;45907;-74
2021/09/09 10:11:12;;;;;;;;;21.33;20.67;;;;;25.27;68.70;100804.38;5035919;28;45486;-74
2021/09/09 10:13:37;;;;;;;;;22.67;21.00;;;;;25.32;69.00;100814.94;5048219;28;46376;-74
2021/09/09 10:16:03;;;;;;;;;20.33;17.33;;;;;25.36;68.82;100802.16;5036367;28;45506;-75
2021/09/09 10:18:28;;;;;;;;;20.67;18.33;;;;;25.46;68.94;100806.13;5049934;28;45516;-74
2021/09/09 10:20:54;;;;;;;;;22.67;22.00;;;;;25.55;68.21;100802.94;5038041;28;55598;-74
2021/09/09 10:23:21;;;;;;;;;23.00;22.00;;;;;25.68;68.31;100809.50;5043297;28;46124;-74
2021/09/09 10:25:49;;;;;;;;;21.00;17.33;;;;;25.73;67.79;100795.72;5045245;28;46326;-74
2021/09/09 10:28:48;;;;;;;;;18.00;16.67;;;;;25.84;67.39;100801.47;5043347;28;45418;-74
2021/09/09 10:31:19;;;;;;;;;21.33;19.67;;;;;25.93;67.32;100800.09;5046292;28;45317;-74
2021/09/09 10:33:49;;;;;;;;;20.00;17.67;;;;;25.99;65.18;100800.63;5054737;28;46578;-78
2021/09/09 10:36:37;;;;;;;;;21.67;18.00;;;;;26.01;66.08;100797.88;5043968;28;45165;-75
2021/09/09 10:39:02;;;;;;;;;17.67;16.00;;;;;26.05;65.30;100794.91;5048422;28;45455;-74
2021/09/09 10:41:31;;;;;;;;;23.33;17.33;;;;;26.12;66.06;100798.16;5049281;28;45587;-74
2021/09/09 10:43:57;;;;;;;;;27.00;20.00;;;;;26.18;65.93;100797.81;5049414;28;46431;-75
2021/09/09 10:46:29;;;;;;;;;18.33;17.33;;;;;26.20;65.05;100797.72;5056500;28;45353;-74
2021/09/09 10:49:24;;;;;;;;;19.00;16.67;;;;;26.12;65.24;100801.75;5049593;28;45335;-75
2021/09/09 10:52:09;;;;;;;;;22.67;19.00;;;;;26.02;64.84;100803.19;5021240;28;45430;-74
2021/09/09 10:55:00;;;;;;;;;16.33;14.00;;;;;25.90;62.78;100800.28;5045256;28;48605;-74
2021/09/09 10:57:26;;;;;;;;;16.00;14.33;;;;;25.91;65.29;100802.03;5047573;28;45413;-74
2021/09/09 10:59:51;;;;;;;;;17.67;15.00;;;;;25.93;64.42;100803.66;5048033;28;45833;-74
2021/09/09 11:02:17;;;;;;;;;13.67;11.33;;;;;25.78;63.08;100797.28;5047537;28;55082;-74
2021/09/09 11:04:44;;;;;;;;;10.00;8.33;;;;;25.68;62.07;100789.69;5048326;28;46498;-78
2021/09/09 11:07:31;;;;;;;;;6.00;5.67;;;;;25.58;61.26;100792.00;5049132;28;45601;-74
2021/09/09 11:10:03;;;;;;;;;10.33;10.33;;;;;25.54;61.97;100796.66;5044127;28;45429;-74